createdAt,value
2022-11-17T00:02:55.424Z,2.10
2022-11-17T00:07:56.685Z,2.42
2022-11-17T00:13:16.497Z,2.00
2022-11-17T00:18:36.269Z,2.20
2022-11-17T00:23:50.054Z,2.90
2022-11-17T00:28:55.264Z,2.40
2022-11-17T00:34:06.077Z,2.30
2022-11-17T00:39:08.416Z,2.00
2022-11-17T00:44:09.969Z,2.00
2022-11-17T00:49:11.438Z,2.50
2022-11-17T00:54:13.240Z,2.50
2022-11-17T00:59:14.924Z,2.22
2022-11-17T01:04:16.211Z,3.60
2022-11-17T01:09:21.823Z,5.80
2022-11-17T01:14:24.105Z,3.17
2022-11-17T01:19:25.400Z,2.22
2022-11-17T01:24:26.717Z,2.28
2022-11-17T01:29:27.963Z,1.90
2022-11-17T01:34:29.300Z,2.15
2022-11-17T01:39:30.989Z,2.17
2022-11-17T01:44:41.496Z,1.70
2022-11-17T01:49:42.809Z,1.65
2022-11-17T01:54:46.151Z,1.80
2022-11-17T02:00:01.694Z,1.85
2022-11-17T02:05:06.007Z,2.00
2022-11-17T02:10:07.561Z,1.83
2022-11-17T02:15:09.353Z,1.80
2022-11-17T02:20:29.434Z,2.07
2022-11-17T02:25:33.507Z,1.80
2022-11-17T02:30:41.296Z,2.00
2022-11-17T02:35:49.876Z,1.85
2022-11-17T02:41:00.283Z,1.80
2022-11-17T02:46:06.522Z,1.80
2022-11-17T02:51:10.773Z,1.98
2022-11-17T02:56:12.004Z,2.00
2022-11-17T03:01:16.342Z,2.00
2022-11-17T03:06:35.898Z,2.00
2022-11-17T03:11:44.929Z,1.90
2022-11-17T03:16:49.031Z,2.08
2022-11-17T03:21:56.382Z,2.40
2022-11-17T03:27:00.478Z,2.30
2022-11-17T03:32:03.509Z,2.10
2022-11-17T03:37:06.953Z,2.33
2022-11-17T03:42:10.742Z,2.22
2022-11-17T03:47:13.132Z,2.30
2022-11-17T03:52:14.482Z,2.40
2022-11-17T03:57:19.959Z,2.30
2022-11-17T04:02:21.713Z,2.27
2022-11-17T04:07:22.995Z,2.15
2022-11-17T04:12:43.106Z,2.20
2022-11-17T04:17:44.328Z,2.40
2022-11-17T04:22:45.587Z,2.33
2022-11-17T04:28:05.364Z,2.20
2022-11-17T04:33:06.660Z,2.00
2022-11-17T04:38:07.864Z,2.30
2022-11-17T04:43:09.081Z,1.85
2022-11-17T04:48:10.332Z,2.15
2022-11-17T04:53:11.557Z,1.60
2022-11-17T04:58:12.958Z,2.00
2022-11-17T05:03:14.248Z,1.90
2022-11-17T05:08:15.497Z,1.60
2022-11-17T05:13:22.827Z,2.20
2022-11-17T05:18:24.039Z,2.07
2022-11-17T05:23:43.967Z,1.70
2022-11-17T05:28:45.257Z,1.93
2022-11-17T05:33:46.583Z,1.60
2022-11-17T05:38:48.685Z,1.60
2022-11-17T05:43:50.480Z,1.67
2022-11-17T05:48:52.301Z,2.42
2022-11-17T05:53:53.600Z,2.40
2022-11-17T05:59:01.714Z,2.20
2022-11-17T06:04:04.650Z,1.85
2022-11-17T06:09:05.931Z,2.00
2022-11-17T06:14:07.262Z,1.65
2022-11-17T06:19:12.782Z,0.83
2022-11-17T06:24:14.192Z,1.15
2022-11-17T06:29:15.880Z,1.00
2022-11-17T06:34:17.257Z,1.30
2022-11-17T06:39:18.487Z,1.33
2022-11-17T06:44:19.713Z,1.02
2022-11-17T06:49:20.947Z,0.90
2022-11-17T06:54:22.220Z,1.20
2022-11-17T06:59:23.569Z,1.30
2022-11-17T07:04:24.886Z,1.48
2022-11-17T07:09:26.432Z,1.42
2022-11-17T07:14:27.830Z,1.40
2022-11-17T07:19:29.179Z,1.73
2022-11-17T07:24:30.451Z,1.10
2022-11-17T07:29:31.954Z,1.30
2022-11-17T07:34:33.230Z,2.60
2022-11-17T07:39:34.486Z,2.30
2022-11-17T07:44:35.757Z,1.55
2022-11-17T07:49:37.078Z,2.90
2022-11-17T07:54:38.390Z,0.98
2022-11-17T07:59:39.690Z,3.53
2022-11-17T08:04:41.012Z,1.70
2022-11-17T08:09:42.327Z,0.90
2022-11-17T08:14:43.584Z,1.33
2022-11-17T08:19:44.850Z,0.77
2022-11-17T08:24:46.133Z,1.15
2022-11-17T08:29:47.634Z,0.83
2022-11-17T08:34:48.943Z,0.95
2022-11-17T08:39:50.275Z,0.80
2022-11-17T08:44:51.624Z,1.07
2022-11-17T08:49:52.925Z,1.20
2022-11-17T08:54:54.461Z,1.00
2022-11-17T08:59:55.775Z,1.40
2022-11-17T09:04:57.067Z,0.90
2022-11-17T09:09:58.349Z,1.50
2022-11-17T09:14:59.636Z,1.20
2022-11-17T09:20:00.886Z,0.90
2022-11-17T09:25:02.185Z,1.47
2022-11-17T09:30:03.636Z,0.90
2022-11-17T09:35:07.037Z,1.03
2022-11-17T09:40:14.487Z,1.00
2022-11-17T09:45:23.489Z,0.80
2022-11-17T09:50:25.041Z,1.30
2022-11-17T09:55:34.124Z,1.52
2022-11-17T10:00:38.567Z,1.13
2022-11-17T10:05:39.945Z,1.03
2022-11-17T10:10:46.421Z,1.23
2022-11-17T10:15:48.801Z,1.48
2022-11-17T10:20:50.973Z,1.20
2022-11-17T10:25:58.589Z,2.30
2022-11-17T10:31:01.560Z,1.87
2022-11-17T10:36:05.286Z,1.63
2022-11-17T10:41:13.057Z,0.90
2022-11-17T10:46:16.514Z,1.60
2022-11-17T10:51:19.390Z,0.80
2022-11-17T10:56:21.697Z,1.30
2022-11-17T11:01:30.145Z,1.00
2022-11-17T11:06:32.623Z,1.57
2022-11-17T11:11:45.915Z,0.88
2022-11-17T11:16:48.335Z,1.13
2022-11-17T11:21:52.988Z,1.17
2022-11-17T11:27:03.391Z,1.20
2022-11-17T11:32:20.402Z,0.83
2022-11-17T11:37:25.107Z,0.80
2022-11-17T11:42:46.643Z,1.23
2022-11-17T11:47:54.393Z,1.00
2022-11-17T11:52:59.404Z,1.50
2022-11-17T11:58:00.702Z,1.30
2022-11-17T12:03:04.887Z,2.10
2022-11-17T12:08:11.578Z,1.00
2022-11-17T12:13:18.262Z,1.50
2022-11-17T12:18:19.500Z,1.63
2022-11-17T12:23:31.355Z,0.87
2022-11-17T12:28:32.654Z,2.67
2022-11-17T12:33:51.959Z,3.70
2022-11-17T12:38:56.878Z,1.37
2022-11-17T12:50:09.920Z,2.30
2022-11-17T12:55:17.375Z,1.30
2022-11-17T13:00:25.068Z,1.10
2022-11-17T13:05:27.529Z,1.30
2022-11-17T13:10:30.809Z,1.60
2022-11-17T13:15:32.088Z,2.05
2022-11-17T13:20:33.925Z,1.63
2022-11-17T13:25:35.217Z,1.60
2022-11-17T13:30:36.625Z,2.00
2022-11-17T13:35:37.904Z,1.57
2022-11-17T13:40:40.436Z,1.92
2022-11-17T13:45:43.295Z,1.83
2022-11-17T13:50:45.043Z,2.40
2022-11-17T13:55:46.846Z,2.58
2022-11-17T14:00:56.496Z,1.90
2022-11-17T14:05:57.849Z,1.70
2022-11-17T14:11:06.922Z,1.53
2022-11-17T14:16:22.020Z,1.90
2022-11-17T14:21:23.509Z,1.60
2022-11-17T14:26:24.843Z,2.00
2022-11-17T14:31:26.179Z,1.80
2022-11-17T14:36:27.692Z,4.75
2022-11-17T14:41:28.962Z,3.53
2022-11-17T14:46:30.205Z,2.60
2022-11-17T14:51:31.982Z,2.27
2022-11-17T14:56:34.717Z,2.20
2022-11-17T15:01:38.388Z,2.30
2022-11-17T15:06:39.808Z,2.17
2022-11-17T15:11:41.238Z,2.10
2022-11-17T15:16:42.528Z,2.50
2022-11-17T15:21:43.836Z,4.77
2022-11-17T15:26:45.110Z,5.63
2022-11-17T15:31:46.634Z,2.63
2022-11-17T15:36:48.407Z,1.87
2022-11-17T15:41:50.665Z,3.03
2022-11-17T15:46:51.976Z,5.67
2022-11-17T15:51:53.273Z,4.80
2022-11-17T15:56:55.465Z,4.93
2022-11-17T16:01:56.749Z,3.90
2022-11-17T16:06:58.417Z,4.07
2022-11-17T16:12:00.141Z,3.90
2022-11-17T16:17:01.537Z,3.83
2022-11-17T16:22:02.835Z,5.15
2022-11-17T16:27:04.095Z,3.33
2022-11-17T16:32:05.517Z,9.60
2022-11-17T16:37:07.113Z,6.78
2022-11-17T16:42:08.397Z,6.40
2022-11-17T16:47:09.776Z,9.98
2022-11-17T16:52:11.034Z,6.60
2022-11-17T16:57:12.275Z,8.50
2022-11-17T17:02:13.765Z,5.75
2022-11-17T17:07:15.210Z,5.60
2022-11-17T17:12:16.550Z,6.70
2022-11-17T17:17:17.841Z,5.38
2022-11-17T17:22:19.167Z,8.30
2022-11-17T17:27:20.396Z,16.25
2022-11-17T17:32:21.677Z,7.43
2022-11-17T17:37:23.052Z,10.10
2022-11-17T17:42:24.331Z,13.05
2022-11-17T17:47:25.575Z,9.57
2022-11-17T17:52:26.833Z,11.07
2022-11-17T17:57:32.742Z,6.47
2022-11-17T18:02:36.088Z,7.70
2022-11-17T18:07:37.420Z,6.85
2022-11-17T18:12:38.737Z,5.53
2022-11-17T18:17:39.984Z,5.28
2022-11-17T18:22:41.228Z,4.90
2022-11-17T18:27:42.526Z,5.77
2022-11-17T18:32:43.764Z,12.55
2022-11-17T18:37:45.004Z,5.43
2022-11-17T18:42:46.274Z,6.72
2022-11-17T18:47:47.586Z,6.00
2022-11-17T18:52:48.867Z,4.70
2022-11-17T18:57:50.196Z,4.18
2022-11-17T19:02:51.479Z,4.47
2022-11-17T19:07:56.208Z,2.30
2022-11-17T19:12:57.825Z,1.67
2022-11-17T19:17:59.084Z,2.30
2022-11-17T19:23:00.330Z,2.30
2022-11-17T19:28:01.723Z,1.23
2022-11-17T19:33:03.110Z,1.70
2022-11-17T19:38:04.396Z,1.80
2022-11-17T19:43:05.685Z,1.90
2022-11-17T19:48:06.996Z,1.30
2022-11-17T19:53:08.351Z,1.50
2022-11-17T19:58:09.605Z,1.35
2022-11-17T20:03:11.642Z,1.30
2022-11-17T20:08:12.922Z,11.43
2022-11-17T20:13:14.240Z,4.15
2022-11-17T20:18:15.520Z,2.90
2022-11-17T20:23:16.802Z,2.00
2022-11-17T20:28:18.134Z,1.30
2022-11-17T20:33:19.428Z,1.97
2022-11-17T20:38:20.741Z,1.70
2022-11-17T20:43:22.071Z,1.53
2022-11-17T20:48:24.092Z,1.90
2022-11-17T20:53:25.577Z,1.50
2022-11-17T20:58:27.369Z,1.40
2022-11-17T21:03:28.658Z,1.30
2022-11-17T21:08:31.171Z,2.57
2022-11-17T21:13:33.139Z,1.92
2022-11-17T21:18:34.739Z,1.10
2022-11-17T21:23:37.201Z,2.10
2022-11-17T21:28:38.772Z,1.30
2022-11-17T21:33:40.443Z,1.20
2022-11-17T21:38:42.344Z,2.70
2022-11-17T21:43:44.338Z,1.73
2022-11-17T21:48:45.870Z,2.93
2022-11-17T21:53:47.618Z,2.50
2022-11-17T21:58:52.856Z,2.50
2022-11-17T22:03:54.199Z,1.60
2022-11-17T22:08:56.003Z,1.95
2022-11-17T22:13:57.395Z,3.80
2022-11-17T22:18:58.894Z,3.30
2022-11-17T22:24:00.392Z,2.73
2022-11-17T22:29:01.670Z,1.50
2022-11-17T22:34:03.260Z,1.52
2022-11-17T22:39:04.704Z,1.90
2022-11-17T22:44:06.439Z,1.27
2022-11-17T22:49:07.844Z,2.60
2022-11-17T22:54:09.272Z,1.40
2022-11-17T22:59:10.628Z,1.30
2022-11-17T23:04:12.285Z,1.40
2022-11-17T23:09:13.800Z,1.90
2022-11-17T23:14:15.380Z,1.80
2022-11-17T23:19:16.845Z,1.55
2022-11-17T23:24:18.422Z,2.05
2022-11-17T23:29:19.726Z,2.10
2022-11-17T23:34:21.109Z,1.65
2022-11-17T23:39:22.385Z,2.10
2022-11-17T23:44:23.701Z,1.95
2022-11-17T23:49:25.236Z,1.70
2022-11-17T23:54:26.866Z,1.40
2022-11-17T23:59:28.152Z,1.70
